Time;durP1;ratioP1;P1;durP2;ratioP2;P2;SDS_P1;SDS_P2;PMS_P1;PMS_P2;Temp;Humidity;BMP_temperature;BMP_pressure;BME280_temperature;BME280_humidity;BME280_pressure;Samples;Min_cycle;Max_cycle;Signal;HPM_P1;HPM_P2
2023/05/10 00:03:20;;;;;;;;;;;21.60;42.80;;;;;;21091873;28;19930;-55
2023/05/10 00:13:21;;;;;;;;;;;21.40;43.70;;;;;;21090483;28;20021;-54
2023/05/10 00:23:22;;;;;;;;;;;21.20;44.40;;;;;;21089424;28;19949;-56
2023/05/10 00:33:23;;;;;;;;;;;21.20;44.80;;;;;;21089122;28;20032;-55
2023/05/10 00:43:23;;;;;;;;;;;20.90;45.30;;;;;;21087321;28;19975;-55
2023/05/10 00:53:24;;;;;;;;;;;20.70;45.50;;;;;;21087999;28;19928;-56
2023/05/10 01:03:37;;;;;;;;;;;20.50;46.00;;;;;;21087136;28;20323;-54
2023/05/10 01:13:39;;;;;;;;;;;20.40;46.20;;;;;;21085989;28;19978;-54
2023/05/10 01:23:58;;;;;;;;;;;20.10;46.70;;;;;;21083871;28;19964;-56
2023/05/10 01:34:02;;;;;;;;;;;19.80;47.80;;;;;;21083321;28;19924;-55
2023/05/10 01:44:03;;;;;;;;;;;19.40;49.10;;;;;;21083645;28;20019;-56
2023/05/10 01:54:05;;;;;;;;;;;19.20;49.50;;;;;;21083040;28;19966;-54
2023/05/10 02:04:07;;;;;;;;;;;19.20;49.80;;;;;;21080899;28;19970;-54
2023/05/10 02:14:09;;;;;;;;;;;18.90;50.70;;;;;;21081553;28;19950;-55
2023/05/10 02:24:10;;;;;;;;;;;18.80;50.70;;;;;;21078138;28;19981;-56
2023/05/10 02:34:11;;;;;;;;;;;18.80;49.90;;;;;;21079183;28;19947;-54
2023/05/10 02:44:14;;;;;;;;;;;18.70;50.00;;;;;;21078367;28;19924;-54
2023/05/10 02:54:24;;;;;;;;;;;18.50;50.40;;;;;;21080214;28;19977;-56
2023/05/10 03:04:24;;;;;;;;;;;18.30;50.10;;;;;;21094798;28;19931;-55
2023/05/10 03:14:44;;;;;;;;;;;18.20;49.80;;;;;;21094247;28;19925;-54
2023/05/10 03:24:45;;;;;;;;;;;18.20;49.80;;;;;;21094539;28;19925;-54
2023/05/10 03:34:45;;;;;;;;;;;17.90;49.80;;;;;;21092751;28;19924;-55
2023/05/10 03:44:46;;;;;;;;;;;17.90;49.70;;;;;;21092536;28;19931;-54
2023/05/10 03:54:46;;;;;;;;;;;17.70;49.80;;;;;;21091101;28;19924;-55
2023/05/10 04:04:48;;;;;;;;;;;17.40;50.60;;;;;;21089153;28;19979;-54
2023/05/10 04:14:48;;;;;;;;;;;17.40;50.20;;;;;;21091367;28;19931;-54
2023/05/10 04:24:49;;;;;;;;;;;17.20;50.90;;;;;;21089183;28;19924;-55
2023/05/10 04:34:51;;;;;;;;;;;17.10;51.20;;;;;;21089258;28;19924;-55
2023/05/10 04:44:52;;;;;;;;;;;17.20;50.90;;;;;;21088387;28;19924;-55
2023/05/10 04:54:52;;;;;;;;;;;17.10;51.00;;;;;;21087767;28;20292;-54
2023/05/10 05:04:53;;;;;;;;;;;16.90;51.20;;;;;;21086606;28;19951;-54
2023/05/10 05:14:53;;;;;;;;;;;16.90;51.30;;;;;;21074052;28;19931;-54
2023/05/10 05:24:54;;;;;;;;;;;16.80;51.30;;;;;;20999881;28;19936;-56
2023/05/10 05:34:55;;;;;;;;;;;16.80;51.30;;;;;;21000634;28;20297;-54
2023/05/10 05:44:56;;;;;;;;;;;16.70;51.40;;;;;;20999721;28;19924;-55
2023/05/10 05:54:56;;;;;;;;;;;16.70;51.40;;;;;;20998019;28;20012;-56
2023/05/10 06:04:57;;;;;;;;;;;16.80;51.30;;;;;;20998549;28;19932;-55
2023/05/10 06:14:57;;;;;;;;;;;16.80;51.30;;;;;;20997543;28;19955;-54
2023/05/10 06:24:58;;;;;;;;;;;16.70;51.70;;;;;;21079342;28;20015;-54
2023/05/10 06:34:59;;;;;;;;;;;16.80;51.10;;;;;;21078960;28;19987;-55
2023/05/10 06:44:59;;;;;;;;;;;17.20;50.60;;;;;;21079148;28;20018;-54
2023/05/10 06:55:00;;;;;;;;;;;17.50;49.40;;;;;;21078373;28;19978;-55
2023/05/10 07:05:01;;;;;;;;;;;18.00;48.70;;;;;;21078389;28;20238;-54
2023/05/10 07:15:02;;;;;;;;;;;18.50;47.10;;;;;;21077805;28;19924;-54
2023/05/10 07:25:03;;;;;;;;;;;18.80;46.50;;;;;;21076145;28;20030;-55
2023/05/10 07:35:04;;;;;;;;;;;19.30;45.20;;;;;;21078426;28;19986;-54
2023/05/10 07:45:05;;;;;;;;;;;19.70;43.60;;;;;;21088436;28;20022;-54
2023/05/10 07:55:07;;;;;;;;;;;19.80;42.90;;;;;;21092596;28;19971;-54
2023/05/10 08:05:07;;;;;;;;;;;19.90;42.70;;;;;;21089671;28;19924;-56
2023/05/10 08:15:08;;;;;;;;;;;;;;;;;;21090612;28;20296;-57
2023/05/10 08:25:09;;;;;;;;;;;20.80;41.10;;;;;;21088304;28;20007;-59
2023/05/10 08:35:10;;;;;;;;;;;21.00;39.70;;;;;;21089295;28;19962;-56
2023/05/10 08:45:11;;;;;;;;;;;20.70;39.90;;;;;;21089186;28;20042;-55
2023/05/10 08:55:12;;;;;;;;;;;21.00;39.00;;;;;;21085350;28;19924;-57
2023/05/10 09:05:12;;;;;;;;;;;21.10;39.00;;;;;;21086942;28;20340;-57
2023/05/10 09:15:15;;;;;;;;;;;21.30;38.10;;;;;;21085755;28;19975;-56
2023/05/10 09:25:16;;;;;;;;;;;21.70;38.00;;;;;;21085263;28;19932;-58
2023/05/10 09:35:18;;;;;;;;;;;21.10;37.30;;;;;;21083753;28;19931;-57
2023/05/10 09:45:19;;;;;;;;;;;21.70;37.00;;;;;;21081341;28;19924;-54
2023/05/10 09:55:23;;;;;;;;;;;22.10;35.40;;;;;;21080903;28;20296;-54
2023/05/10 10:05:34;;;;;;;;;;;21.70;36.40;;;;;;21081637;28;19964;-53
2023/05/10 10:15:34;;;;;;;;;;;21.80;35.50;;;;;;21080170;28;19924;-53
2023/05/10 10:25:35;;;;;;;;;;;21.60;35.20;;;;;;21080232;28;19957;-53
2023/05/10 10:35:36;;;;;;;;;;;21.50;35.10;;;;;;21080258;28;19924;-55
2023/05/10 10:45:39;;;;;;;;;;;21.70;34.40;;;;;;21079366;28;19978;-53
2023/05/10 10:55:46;;;;;;;;;;;21.90;34.50;;;;;;21079573;28;20003;-53
2023/05/10 11:05:51;;;;;;;;;;;21.90;34.20;;;;;;21078936;28;19924;-53
2023/05/10 11:15:53;;;;;;;;;;;22.00;34.20;;;;;;21081157;28;19924;-54
2023/05/10 11:25:53;;;;;;;;;;;21.80;34.10;;;;;;21093263;28;19934;-52
2023/05/10 11:35:54;;;;;;;;;;;22.20;33.80;;;;;;21093091;28;19959;-53
2023/05/10 11:45:55;;;;;;;;;;;22.50;32.90;;;;;;21091331;28;19947;-55
2023/05/10 11:56:01;;;;;;;;;;;22.80;32.40;;;;;;21089710;28;19924;-54
2023/05/10 12:06:02;;;;;;;;;;;23.00;32.10;;;;;;21089654;28;19924;-52
2023/05/10 12:16:12;;;;;;;;;;;23.20;31.00;;;;;;21087566;28;20361;-53
2023/05/10 12:26:12;;;;;;;;;;;23.10;31.10;;;;;;21087337;28;19924;-53
2023/05/10 12:36:14;;;;;;;;;;;23.10;30.40;;;;;;21087228;28;20019;-53
2023/05/10 12:46:16;;;;;;;;;;;23.20;30.00;;;;;;21087045;28;19924;-54
2023/05/10 12:56:17;;;;;;;;;;;23.50;29.70;;;;;;21085735;28;20325;-52
2023/05/10 13:06:17;;;;;;;;;;;23.60;28.90;;;;;;21086730;28;19975;-52
2023/05/10 13:16:18;;;;;;;;;;;23.60;28.60;;;;;;21086191;28;19970;-53
2023/05/10 13:26:18;;;;;;;;;;;23.80;27.60;;;;;;21084206;28;20024;-52
2023/05/10 13:36:19;;;;;;;;;;;23.90;27.30;;;;;;21084159;28;19924;-54
2023/05/10 13:46:20;;;;;;;;;;;23.80;26.80;;;;;;21083826;28;20015;-53
2023/05/10 13:56:20;;;;;;;;;;;24.00;26.70;;;;;;21081729;28;19930;-52
2023/05/10 14:06:21;;;;;;;;;;;24.30;26.50;;;;;;21080790;28;20377;-51
2023/05/10 14:16:22;;;;;;;;;;;24.60;25.60;;;;;;21081364;28;20007;-53
2023/05/10 14:26:22;;;;;;;;;;;24.70;25.60;;;;;;21080132;28;20011;-54
2023/05/10 14:36:23;;;;;;;;;;;24.80;25.60;;;;;;21080135;28;19924;-54
2023/05/10 14:46:23;;;;;;;;;;;24.90;25.90;;;;;;21079225;28;20023;-54
2023/05/10 14:56:25;;;;;;;;;;;25.30;24.80;;;;;;21078416;28;19935;-54
2023/05/10 15:06:33;;;;;;;;;;;25.20;24.30;;;;;;21079018;28;19924;-53
2023/05/10 15:16:34;;;;;;;;;;;25.00;24.50;;;;;;21078362;28;20038;-55
2023/05/10 15:26:35;;;;;;;;;;;25.10;24.70;;;;;;21077176;28;19924;-57
2023/05/10 15:36:35;;;;;;;;;;;25.10;25.40;;;;;;21075350;28;19930;-56
2023/05/10 15:46:37;;;;;;;;;;;25.30;24.00;;;;;;21075901;28;20426;-57
2023/05/10 15:56:38;;;;;;;;;;;25.30;23.50;;;;;;21076002;28;19924;-59
2023/05/10 16:06:38;;;;;;;;;;;25.50;23.80;;;;;;21087403;28;19924;-59
2023/05/10 16:16:40;;;;;;;;;;;25.50;24.60;;;;;;21090019;28;20015;-58
2023/05/10 16:26:40;;;;;;;;;;;25.40;23.00;;;;;;21089976;28;19924;-59
2023/05/10 16:36:41;;;;;;;;;;;25.60;22.10;;;;;;21088970;28;19968;-61
2023/05/10 16:46:42;;;;;;;;;;;25.60;21.00;;;;;;21088121;28;19924;-58
2023/05/10 16:56:43;;;;;;;;;;;25.60;20.30;;;;;;21087384;28;20454;-62
2023/05/10 17:06:43;;;;;;;;;;;25.60;21.50;;;;;;21086962;28;19924;-57
2023/05/10 17:16:44;;;;;;;;;;;25.60;19.20;;;;;;21067866;28;19974;-56
2023/05/10 17:26:45;;;;;;;;;;;25.30;19.30;;;;;;21084291;28;20381;-57
2023/05/10 17:36:45;;;;;;;;;;;25.10;18.20;;;;;;21084221;28;20327;-60
2023/05/10 17:46:46;;;;;;;;;;;25.00;19.60;;;;;;21138028;28;19966;-60
2023/05/10 17:56:47;;;;;;;;;;;24.90;18.50;;;;;;21167377;28;20052;-60
2023/05/10 18:06:50;;;;;;;;;;;24.70;18.30;;;;;;21151410;28;20363;-58
2023/05/10 18:16:50;;;;;;;;;;;24.50;17.80;;;;;;21162324;28;19966;-58
2023/05/10 18:26:51;;;;;;;;;;;24.60;21.50;;;;;;21163503;28;19930;-59
2023/05/10 18:36:52;;;;;;;;;;;24.50;22.40;;;;;;21163727;28;20018;-60
2023/05/10 18:46:53;;;;;;;;;;;24.40;23.70;;;;;;21160879;28;19923;-60
2023/05/10 18:56:53;;;;;;;;;;;24.40;22.60;;;;;;21163652;28;19977;-61
2023/05/10 19:06:54;;;;;;;;;;;24.10;24.90;;;;;;21162584;28;19927;-61
2023/05/10 19:16:55;;;;;;;;;;;24.00;24.10;;;;;;21163706;28;20360;-59
2023/05/10 19:26:56;;;;;;;;;;;23.90;24.50;;;;;;21163565;28;20032;-57
2023/05/10 19:36:57;;;;;;;;;;;23.60;24.60;;;;;;21166603;28;20016;-61
2023/05/10 19:46:59;;;;;;;;;;;23.50;24.80;;;;;;21177657;28;19924;-58
2023/05/10 19:56:59;;;;;;;;;;;23.20;23.60;;;;;;21177050;28;19931;-55
2023/05/10 20:07:00;;;;;;;;;;;22.70;24.00;;;;;;21176403;28;19924;-56
2023/05/10 20:17:00;;;;;;;;;;;22.40;24.40;;;;;;21175561;28;19963;-56
2023/05/10 20:27:01;;;;;;;;;;;22.20;24.50;;;;;;21174819;28;19924;-55
2023/05/10 20:37:02;;;;;;;;;;;22.00;24.80;;;;;;21173809;28;19924;-56
2023/05/10 20:47:03;;;;;;;;;;;21.80;25.20;;;;;;21171345;28;20272;-55
2023/05/10 20:57:03;;;;;;;;;;;21.50;25.60;;;;;;21171545;28;19923;-55
2023/05/10 21:07:04;;;;;;;;;;;21.40;25.70;;;;;;21171648;28;19988;-56
2023/05/10 21:17:05;;;;;;;;;;;21.30;26.30;;;;;;21169583;28;20442;-56
2023/05/10 21:27:06;;;;;;;;;;;21.10;26.90;;;;;;21168763;28;19924;-55
2023/05/10 21:37:06;;;;;;;;;;;21.00;27.00;;;;;;21169028;28;19963;-55
2023/05/10 21:47:07;;;;;;;;;;;20.80;27.20;;;;;;21167653;28;19924;-56
2023/05/10 21:57:08;;;;;;;;;;;20.70;27.30;;;;;;21166827;28;19981;-56
2023/05/10 22:07:08;;;;;;;;;;;20.60;27.60;;;;;;21166873;28;20015;-56
2023/05/10 22:17:09;;;;;;;;;;;20.40;28.20;;;;;;21165299;28;20412;-56
2023/05/10 22:27:10;;;;;;;;;;;20.10;28.60;;;;;;21164266;28;19927;-56
2023/05/10 22:37:12;;;;;;;;;;;20.00;28.90;;;;;;21164376;28;20324;-56
2023/05/10 22:47:13;;;;;;;;;;;19.90;29.50;;;;;;21163297;28;19932;-56
2023/05/10 22:57:14;;;;;;;;;;;19.50;31.10;;;;;;21162754;28;19981;-55
2023/05/10 23:07:15;;;;;;;;;;;19.30;32.70;;;;;;21160967;28;20014;-55
2023/05/10 23:17:16;;;;;;;;;;;19.00;34.00;;;;;;21175753;28;19963;-55
2023/05/10 23:27:16;;;;;;;;;;;18.80;35.00;;;;;;21179160;28;19966;-56
2023/05/10 23:37:17;;;;;;;;;;;18.60;35.90;;;;;;21176334;28;20015;-56
2023/05/10 23:47:17;;;;;;;;;;;18.20;37.10;;;;;;21175700;28;20377;-54
2023/05/10 23:57:18;;;;;;;;;;;18.00;37.80;;;;;;21174803;28;19979;-55
